createdAt,value
2017-08-16T00:00:18.476Z,22.8
2017-08-16T00:01:20.043Z,22.8
2017-08-16T00:02:21.633Z,22.8
2017-08-16T00:03:23.162Z,22.8
2017-08-16T00:04:24.751Z,22.8
2017-08-16T00:05:26.387Z,22.8
2017-08-16T00:06:27.967Z,22.8
2017-08-16T00:07:29.568Z,22.7
2017-08-16T00:08:31.131Z,22.8
2017-08-16T00:09:32.605Z,22.8
2017-08-16T00:10:34.145Z,22.8
2017-08-16T00:11:35.629Z,22.8
2017-08-16T00:12:37.153Z,22.9
2017-08-16T00:13:38.725Z,22.8
2017-08-16T00:14:40.196Z,22.8
2017-08-16T00:15:41.781Z,22.8
2017-08-16T00:16:43.262Z,22.8
2017-08-16T00:17:44.825Z,22.9
2017-08-16T00:18:46.334Z,22.9
2017-08-16T00:19:47.877Z,22.9
2017-08-16T00:20:49.425Z,22.8
2017-08-16T00:21:50.908Z,22.8
2017-08-16T00:22:52.483Z,22.8
2017-08-16T00:23:53.988Z,22.7
2017-08-16T00:24:55.489Z,22.7
2017-08-16T00:25:56.988Z,22.6
2017-08-16T00:26:58.510Z,22.5
2017-08-16T00:27:59.968Z,22.6
2017-08-16T00:29:01.480Z,22.5
2017-08-16T00:30:02.974Z,22.5
2017-08-16T00:31:04.460Z,22.5
2017-08-16T00:32:06.000Z,22.4
2017-08-16T00:33:07.504Z,22.4
2017-08-16T00:34:09.064Z,22.4
2017-08-16T00:35:10.650Z,22.3
2017-08-16T00:36:12.126Z,22.4
2017-08-16T00:37:13.730Z,22.3
2017-08-16T00:38:15.266Z,22.3
2017-08-16T00:39:16.761Z,22.2
2017-08-16T00:40:18.318Z,22.3
2017-08-16T00:41:19.883Z,22.2
2017-08-16T00:42:21.407Z,22.2
2017-08-16T00:43:22.969Z,22.2
2017-08-16T00:44:24.490Z,22.3
2017-08-16T00:45:26.027Z,22.3
2017-08-16T00:46:27.505Z,22.2
2017-08-16T00:47:29.072Z,22.2
2017-08-16T00:48:30.603Z,22.1
2017-08-16T00:49:32.128Z,22.1
2017-08-16T00:50:33.684Z,22.3
2017-08-16T00:51:35.207Z,22.1
2017-08-16T00:52:36.770Z,22.2
2017-08-16T00:53:38.319Z,22.2
2017-08-16T00:54:39.791Z,22.1
2017-08-16T00:55:41.255Z,22.1
2017-08-16T00:56:42.845Z,22.2
2017-08-16T00:57:44.348Z,22.0
2017-08-16T00:58:45.957Z,22.0
2017-08-16T00:59:47.483Z,22.0
2017-08-16T01:00:49.222Z,21.9
2017-08-16T01:01:50.685Z,21.9
2017-08-16T01:02:52.231Z,22.0
2017-08-16T01:03:53.738Z,22.0
2017-08-16T01:04:55.241Z,22.0
2017-08-16T01:05:56.774Z,21.9
2017-08-16T01:06:58.268Z,21.9
2017-08-16T01:07:59.854Z,21.9
2017-08-16T01:09:01.359Z,21.9
2017-08-16T01:10:02.911Z,21.9
2017-08-16T01:11:04.475Z,21.9
2017-08-16T01:12:06.010Z,21.8
2017-08-16T01:13:07.593Z,21.8
2017-08-16T01:14:09.064Z,21.8
2017-08-16T01:15:10.667Z,21.8
2017-08-16T01:16:12.218Z,21.8
2017-08-16T01:17:13.836Z,21.8
2017-08-16T01:18:15.393Z,21.7
2017-08-16T01:19:16.878Z,21.7
2017-08-16T01:20:18.370Z,21.6
2017-08-16T01:21:19.965Z,21.5
2017-08-16T01:22:21.505Z,21.5
2017-08-16T01:23:23.041Z,21.6
2017-08-16T01:24:24.561Z,21.6
2017-08-16T01:25:26.164Z,21.5
2017-08-16T01:26:27.697Z,21.4
2017-08-16T01:27:29.194Z,21.4
2017-08-16T01:28:30.744Z,21.4
2017-08-16T01:29:32.296Z,21.4
2017-08-16T01:30:33.820Z,21.3
2017-08-16T01:31:35.334Z,21.3
2017-08-16T01:32:36.958Z,21.2
2017-08-16T01:33:38.389Z,21.3
2017-08-16T01:34:39.980Z,21.2
2017-08-16T01:35:41.468Z,21.2
2017-08-16T01:36:42.979Z,21.1
2017-08-16T01:37:44.555Z,21.1
2017-08-16T01:38:46.179Z,21.1
2017-08-16T01:39:47.797Z,21.1
2017-08-16T01:40:49.399Z,21.0
2017-08-16T01:41:50.903Z,21.0
2017-08-16T01:42:52.400Z,21.0
2017-08-16T01:43:53.944Z,21.1
2017-08-16T01:44:55.503Z,21.0
2017-08-16T01:45:57.012Z,21.0
2017-08-16T01:46:58.506Z,21.1
2017-08-16T01:48:00.087Z,21.1
2017-08-16T01:49:01.626Z,21.0
2017-08-16T01:50:03.113Z,21.0
2017-08-16T01:51:04.628Z,21.0
2017-08-16T01:52:06.218Z,20.9
2017-08-16T01:53:07.782Z,20.9
2017-08-16T01:54:09.342Z,20.8
2017-08-16T01:55:10.846Z,20.8
2017-08-16T01:56:12.360Z,20.9
2017-08-16T01:57:13.911Z,20.8
2017-08-16T01:58:15.520Z,20.9
2017-08-16T01:59:17.062Z,21.0
2017-08-16T02:00:18.643Z,20.9
2017-08-16T02:01:20.318Z,20.9
2017-08-16T02:02:21.907Z,20.9
2017-08-16T02:03:23.516Z,20.9
2017-08-16T02:04:25.041Z,20.9
2017-08-16T02:05:26.593Z,20.9
2017-08-16T02:06:28.185Z,21.0
2017-08-16T02:07:29.727Z,21.0
2017-08-16T02:08:31.228Z,21.0
2017-08-16T02:09:32.828Z,21.0
2017-08-16T02:10:34.444Z,21.0
2017-08-16T02:11:35.984Z,21.0
2017-08-16T02:12:37.517Z,20.9
2017-08-16T02:13:39.140Z,21.0
2017-08-16T02:14:40.686Z,21.0
2017-08-16T02:15:42.259Z,21.0
2017-08-16T02:16:43.794Z,21.0
2017-08-16T02:17:45.298Z,21.1
2017-08-16T02:18:46.839Z,21.2
2017-08-16T02:19:48.353Z,21.0
2017-08-16T02:20:49.925Z,21.0
2017-08-16T02:21:51.480Z,21.1
2017-08-16T02:22:52.994Z,20.9
2017-08-16T02:23:54.552Z,21.0
2017-08-16T02:24:56.069Z,20.9
2017-08-16T02:25:57.584Z,20.9
2017-08-16T02:26:59.087Z,20.8
2017-08-16T02:28:00.636Z,20.8
2017-08-16T02:29:02.193Z,20.8
2017-08-16T02:30:03.811Z,20.8
2017-08-16T02:31:05.328Z,20.8
2017-08-16T02:32:06.850Z,20.8
2017-08-16T02:33:08.402Z,20.8
2017-08-16T02:34:09.935Z,20.7
2017-08-16T02:35:11.480Z,20.7
2017-08-16T02:36:12.969Z,20.7
2017-08-16T02:37:14.547Z,20.6
2017-08-16T02:38:16.145Z,20.5
2017-08-16T02:39:17.626Z,20.6
2017-08-16T02:40:19.177Z,20.5
2017-08-16T02:41:20.741Z,20.5
2017-08-16T02:42:22.255Z,20.6
2017-08-16T02:43:23.783Z,20.5
2017-08-16T02:44:25.318Z,20.5
2017-08-16T02:45:26.825Z,20.6
2017-08-16T02:46:28.392Z,20.6
2017-08-16T02:47:29.949Z,20.6
2017-08-16T02:48:31.503Z,20.6
2017-08-16T02:49:33.056Z,20.7
2017-08-16T02:50:34.660Z,20.7
2017-08-16T02:51:36.229Z,20.7
2017-08-16T02:52:37.830Z,20.7
2017-08-16T02:53:39.460Z,20.8
2017-08-16T02:54:41.026Z,20.7
2017-08-16T02:55:42.613Z,20.7
2017-08-16T02:56:44.232Z,20.7
2017-08-16T02:57:45.852Z,20.7
2017-08-16T02:58:47.473Z,20.7
2017-08-16T02:59:49.073Z,20.7
2017-08-16T03:00:50.685Z,20.7
2017-08-16T03:01:52.347Z,20.7
2017-08-16T03:02:53.908Z,20.6
2017-08-16T03:03:55.509Z,20.5
2017-08-16T03:04:57.143Z,20.5
2017-08-16T03:05:58.809Z,20.5
2017-08-16T03:07:00.423Z,20.5
2017-08-16T03:08:01.982Z,20.4
2017-08-16T03:09:03.576Z,20.4
2017-08-16T03:10:05.237Z,20.4
2017-08-16T03:11:06.918Z,20.3
2017-08-16T03:12:08.534Z,20.2
2017-08-16T03:13:10.121Z,20.2
2017-08-16T03:14:11.703Z,20.3
2017-08-16T03:15:13.295Z,20.3
2017-08-16T03:16:14.854Z,20.2
2017-08-16T03:17:16.387Z,20.2
2017-08-16T03:18:17.977Z,20.3
2017-08-16T03:19:19.484Z,20.3
2017-08-16T03:20:21.191Z,20.3
2017-08-16T03:21:22.799Z,20.4
2017-08-16T03:22:24.395Z,20.4
2017-08-16T03:23:25.974Z,20.4
2017-08-16T03:24:27.518Z,20.4
2017-08-16T03:25:29.120Z,20.4
2017-08-16T03:26:30.682Z,20.5
2017-08-16T03:27:32.264Z,20.4
2017-08-16T03:28:33.805Z,20.4
2017-08-16T03:29:35.416Z,20.4
2017-08-16T03:30:36.969Z,20.4
2017-08-16T03:31:38.570Z,20.4
2017-08-16T03:32:40.144Z,20.3
2017-08-16T03:33:41.786Z,20.2
2017-08-16T03:34:43.403Z,20.2
2017-08-16T03:35:45.015Z,20.2
2017-08-16T03:36:46.608Z,20.2
2017-08-16T03:37:48.192Z,20.1
2017-08-16T03:38:49.761Z,20.1
2017-08-16T03:39:51.306Z,20.2
2017-08-16T03:40:52.882Z,20.2
2017-08-16T03:41:54.431Z,20.2
2017-08-16T03:42:56.000Z,20.1
2017-08-16T03:43:57.546Z,20.1
2017-08-16T03:44:59.118Z,20.2
2017-08-16T03:46:00.724Z,20.1
2017-08-16T03:47:02.315Z,20.2
2017-08-16T03:48:03.843Z,20.2
2017-08-16T03:49:05.423Z,20.3
2017-08-16T03:50:07.025Z,20.3
2017-08-16T03:51:08.611Z,20.3
2017-08-16T03:52:10.255Z,20.3
2017-08-16T03:53:11.813Z,20.4
2017-08-16T03:54:13.428Z,20.4
2017-08-16T03:55:14.981Z,20.3
2017-08-16T03:56:16.596Z,20.4
2017-08-16T03:57:18.261Z,20.4
2017-08-16T03:58:20.027Z,20.4
2017-08-16T03:59:21.632Z,20.4
2017-08-16T04:00:23.205Z,20.4
2017-08-16T04:01:24.836Z,20.4
2017-08-16T04:02:26.421Z,20.5
2017-08-16T04:03:27.948Z,20.4
2017-08-16T04:04:29.683Z,20.4
2017-08-16T04:05:31.193Z,20.4
2017-08-16T04:06:32.725Z,20.4
2017-08-16T04:07:34.342Z,20.4
2017-08-16T04:08:35.909Z,20.3
2017-08-16T04:09:37.468Z,20.4
2017-08-16T04:10:39.063Z,20.4
2017-08-16T04:11:40.690Z,20.3
2017-08-16T04:12:42.201Z,20.4
2017-08-16T04:13:43.748Z,20.4
2017-08-16T04:14:45.340Z,20.4
2017-08-16T04:15:46.949Z,20.4
2017-08-16T04:16:48.769Z,20.3
2017-08-16T04:17:50.406Z,20.3
2017-08-16T04:18:52.020Z,20.3
2017-08-16T04:19:53.667Z,20.2
2017-08-16T04:20:55.246Z,20.2
2017-08-16T04:21:56.793Z,20.2
2017-08-16T04:22:58.570Z,20.2
2017-08-16T04:24:00.257Z,20.1
2017-08-16T04:25:01.853Z,20.1
2017-08-16T04:26:03.468Z,20.0
2017-08-16T04:27:05.000Z,20.0
2017-08-16T04:28:06.638Z,19.9
2017-08-16T04:29:08.189Z,20.0
2017-08-16T04:30:09.773Z,20.0
2017-08-16T04:31:11.394Z,20.0
2017-08-16T04:32:12.965Z,20.0
2017-08-16T04:33:14.600Z,20.0
2017-08-16T04:34:16.228Z,20.0
2017-08-16T04:35:17.843Z,20.0
2017-08-16T04:36:19.491Z,20.0
2017-08-16T04:37:21.077Z,20.0
2017-08-16T04:38:22.734Z,20.0
2017-08-16T04:39:24.233Z,20.0
2017-08-16T04:40:25.826Z,20.1
2017-08-16T04:41:27.402Z,20.0
2017-08-16T04:42:28.997Z,20.0
2017-08-16T04:43:30.525Z,20.1
2017-08-16T04:44:32.032Z,20.1
2017-08-16T04:45:33.563Z,20.2
2017-08-16T04:46:35.079Z,20.1
2017-08-16T04:47:36.619Z,20.2
2017-08-16T04:48:38.190Z,20.1
2017-08-16T04:49:39.711Z,20.2
2017-08-16T04:50:41.291Z,20.2
2017-08-16T04:51:42.892Z,20.2
2017-08-16T04:52:44.452Z,20.1
2017-08-16T04:53:46.026Z,20.0
2017-08-16T04:54:47.598Z,20.0
2017-08-16T04:55:49.166Z,20.0
2017-08-16T04:56:50.651Z,19.9
2017-08-16T04:57:52.230Z,20.0
2017-08-16T04:58:53.759Z,19.9
2017-08-16T04:59:55.386Z,19.9
2017-08-16T05:00:56.990Z,19.9
2017-08-16T05:01:58.527Z,19.8
2017-08-16T05:03:00.078Z,19.9
2017-08-16T05:04:01.636Z,19.8
2017-08-16T05:05:03.178Z,19.7
2017-08-16T05:06:04.781Z,19.7
2017-08-16T05:07:06.383Z,19.7
2017-08-16T05:08:07.894Z,19.7
2017-08-16T05:09:09.439Z,19.8
2017-08-16T05:10:10.968Z,19.7
2017-08-16T05:11:12.476Z,19.7
2017-08-16T05:12:14.056Z,19.7
2017-08-16T05:13:15.655Z,19.8
2017-08-16T05:14:17.214Z,19.8
2017-08-16T05:15:18.710Z,19.7
2017-08-16T05:16:20.252Z,19.6
2017-08-16T05:17:21.797Z,19.7
2017-08-16T05:18:23.330Z,19.5
2017-08-16T05:19:24.881Z,19.5
2017-08-16T05:20:26.403Z,19.5
2017-08-16T05:21:27.936Z,19.3
2017-08-16T05:22:29.485Z,19.4
2017-08-16T05:23:30.989Z,19.2
2017-08-16T05:24:32.515Z,19.2
2017-08-16T05:25:34.029Z,19.1
2017-08-16T05:26:35.569Z,19.0
2017-08-16T05:27:37.093Z,18.9
2017-08-16T05:28:38.723Z,18.9
2017-08-16T05:29:40.253Z,18.9
2017-08-16T05:30:41.733Z,18.8
2017-08-16T05:31:44.163Z,18.7
2017-08-16T05:32:45.666Z,18.7
2017-08-16T05:33:47.178Z,18.7
2017-08-16T05:34:48.720Z,18.7
2017-08-16T05:35:50.245Z,18.7
2017-08-16T05:36:51.741Z,18.6
2017-08-16T05:37:53.317Z,18.7
2017-08-16T05:38:54.859Z,18.7
2017-08-16T05:39:56.417Z,18.7
2017-08-16T05:40:57.947Z,18.7
2017-08-16T05:41:59.438Z,18.7
2017-08-16T05:43:00.949Z,18.8
2017-08-16T05:44:02.441Z,18.8
2017-08-16T05:45:03.958Z,18.8
2017-08-16T05:46:05.503Z,18.7
2017-08-16T05:47:07.123Z,18.7
2017-08-16T05:48:08.602Z,18.6
2017-08-16T05:49:10.183Z,18.7
2017-08-16T05:50:11.697Z,18.6
2017-08-16T05:51:13.269Z,18.6
2017-08-16T05:52:14.732Z,18.6
2017-08-16T05:53:16.204Z,18.7
2017-08-16T05:54:17.729Z,18.7
2017-08-16T05:55:19.258Z,18.6
2017-08-16T05:56:20.777Z,18.7
2017-08-16T05:57:22.291Z,18.8
2017-08-16T05:58:23.834Z,18.8
2017-08-16T05:59:25.379Z,18.9
2017-08-16T06:00:26.914Z,18.9
2017-08-16T06:01:28.430Z,19.0
2017-08-16T06:02:29.978Z,19.0
2017-08-16T06:03:31.504Z,19.0
2017-08-16T06:04:32.969Z,18.9
2017-08-16T06:05:34.757Z,18.9
2017-08-16T06:06:36.418Z,18.9
2017-08-16T06:07:37.953Z,18.8
2017-08-16T06:08:39.500Z,18.9
2017-08-16T06:09:41.065Z,18.9
2017-08-16T06:10:42.597Z,18.9
2017-08-16T06:11:44.212Z,19.0
2017-08-16T06:12:45.963Z,18.9
2017-08-16T06:13:47.485Z,18.9
2017-08-16T06:14:49.453Z,18.8
2017-08-16T06:15:51.037Z,18.9
2017-08-16T06:16:53.076Z,19.0
2017-08-16T06:17:54.620Z,18.9
2017-08-16T06:18:56.400Z,18.9
2017-08-16T06:19:57.907Z,19.0
2017-08-16T06:20:59.469Z,18.9
2017-08-16T06:22:01.032Z,18.9
2017-08-16T06:23:02.588Z,19.1
2017-08-16T06:24:04.131Z,19.1
2017-08-16T06:25:05.703Z,19.0
2017-08-16T06:26:07.220Z,19.1
2017-08-16T06:27:08.787Z,19.0
2017-08-16T06:28:10.367Z,19.1
2017-08-16T06:29:11.945Z,19.1
2017-08-16T06:30:13.556Z,19.0
2017-08-16T06:31:15.123Z,19.0
2017-08-16T06:32:16.724Z,19.0
2017-08-16T06:33:18.274Z,19.0
2017-08-16T06:34:20.033Z,19.0
2017-08-16T06:35:21.566Z,19.1
2017-08-16T06:36:23.074Z,19.0
2017-08-16T06:37:24.663Z,19.0
2017-08-16T06:38:26.194Z,19.1
2017-08-16T06:39:27.787Z,19.0
2017-08-16T06:40:29.294Z,19.0
2017-08-16T06:41:30.931Z,19.0
2017-08-16T06:42:32.466Z,19.0
2017-08-16T06:43:34.147Z,19.0
2017-08-16T06:44:35.697Z,18.9
2017-08-16T06:45:37.233Z,19.0
2017-08-16T06:46:38.787Z,18.9
2017-08-16T06:47:40.436Z,19.0
2017-08-16T06:48:41.942Z,18.9
2017-08-16T06:49:43.661Z,19.0
2017-08-16T06:50:45.212Z,18.9
2017-08-16T06:51:46.795Z,19.0
2017-08-16T06:52:48.380Z,19.0
2017-08-16T06:53:49.900Z,19.0
2017-08-16T06:54:51.463Z,19.1
2017-08-16T06:55:53.030Z,19.1
2017-08-16T06:56:54.556Z,19.1
2017-08-16T06:57:56.109Z,19.2
2017-08-16T06:58:57.695Z,19.4
2017-08-16T06:59:59.265Z,19.3
2017-08-16T07:01:00.770Z,19.5
2017-08-16T07:02:02.356Z,19.5
2017-08-16T07:03:04.551Z,19.6
2017-08-16T07:04:06.035Z,19.8
2017-08-16T07:05:07.551Z,19.9
2017-08-16T07:06:09.083Z,20.0
2017-08-16T07:07:10.612Z,20.1
2017-08-16T07:08:12.137Z,20.2
2017-08-16T07:09:13.711Z,20.3
2017-08-16T07:10:15.230Z,20.3
2017-08-16T07:11:16.735Z,20.5
2017-08-16T07:12:18.308Z,20.4
2017-08-16T07:13:19.816Z,20.5
2017-08-16T07:14:21.334Z,20.5
2017-08-16T07:15:22.894Z,20.7
2017-08-16T07:16:24.437Z,20.7
2017-08-16T07:17:25.964Z,20.9
2017-08-16T07:18:27.466Z,21.1
2017-08-16T07:19:28.998Z,21.1
2017-08-16T07:20:30.513Z,21.2
2017-08-16T07:21:32.058Z,21.3
2017-08-16T07:22:33.527Z,21.3
2017-08-16T07:23:35.063Z,21.4
2017-08-16T07:24:36.601Z,21.4
2017-08-16T07:25:38.118Z,21.4
2017-08-16T07:26:39.734Z,21.4
2017-08-16T07:27:41.269Z,21.4
2017-08-16T07:28:42.764Z,21.4
2017-08-16T07:29:44.251Z,21.5
2017-08-16T07:30:45.762Z,21.5
2017-08-16T07:31:47.345Z,21.5
2017-08-16T07:32:48.822Z,21.5
2017-08-16T07:33:50.372Z,21.5
2017-08-16T07:34:51.865Z,21.5
2017-08-16T07:35:53.436Z,21.5
2017-08-16T07:36:54.924Z,21.5
2017-08-16T07:37:56.505Z,21.4
2017-08-16T07:38:58.005Z,21.4
2017-08-16T07:39:59.537Z,21.4
2017-08-16T07:41:01.098Z,21.3
2017-08-16T07:42:02.627Z,21.4
2017-08-16T07:43:04.211Z,21.3
2017-08-16T07:44:05.734Z,21.3
2017-08-16T07:45:07.300Z,21.3
2017-08-16T07:46:08.826Z,21.3
2017-08-16T07:47:10.362Z,21.4
2017-08-16T07:48:11.913Z,21.6
2017-08-16T07:49:13.504Z,21.7
2017-08-16T07:50:15.037Z,21.8
2017-08-16T07:51:16.525Z,21.9
2017-08-16T07:52:18.078Z,22.0
2017-08-16T07:53:19.579Z,22.0
2017-08-16T07:54:21.102Z,22.0
2017-08-16T07:55:22.627Z,22.0
2017-08-16T07:56:24.144Z,22.2
2017-08-16T07:57:25.682Z,22.7
2017-08-16T07:58:27.291Z,22.8
2017-08-16T07:59:28.766Z,22.9
2017-08-16T08:00:30.307Z,22.8
2017-08-16T08:01:31.820Z,22.6
2017-08-16T08:02:33.316Z,22.5
2017-08-16T08:03:34.805Z,22.3
2017-08-16T08:04:36.260Z,22.2
2017-08-16T08:05:37.794Z,22.1
2017-08-16T08:06:39.396Z,22.1
2017-08-16T08:07:40.928Z,21.8
2017-08-16T08:08:42.401Z,21.7
2017-08-16T08:09:43.938Z,21.8
2017-08-16T08:10:45.486Z,21.9
2017-08-16T08:11:46.992Z,22.2
2017-08-16T08:12:48.537Z,22.3
2017-08-16T08:13:50.130Z,22.5
2017-08-16T08:14:51.610Z,22.8
2017-08-16T08:15:53.166Z,22.8
2017-08-16T08:16:54.784Z,22.8
2017-08-16T08:17:56.312Z,22.8
2017-08-16T08:18:57.839Z,22.9
2017-08-16T08:19:59.421Z,22.9
2017-08-16T08:21:00.970Z,22.8
2017-08-16T08:22:02.472Z,22.9
2017-08-16T08:23:04.022Z,22.8
2017-08-16T08:24:05.556Z,22.9
2017-08-16T08:25:07.126Z,22.8
2017-08-16T08:26:08.617Z,23.1
2017-08-16T08:27:10.114Z,23.6
2017-08-16T08:28:11.583Z,24.0
2017-08-16T08:29:13.118Z,24.1
2017-08-16T08:30:14.638Z,24.4
2017-08-16T08:31:16.162Z,24.2
2017-08-16T08:32:17.739Z,24.3
2017-08-16T08:33:19.254Z,24.3
2017-08-16T08:34:20.814Z,24.2
2017-08-16T08:35:22.327Z,24.0
2017-08-16T08:36:23.902Z,23.8
2017-08-16T08:37:25.451Z,23.7
2017-08-16T08:38:27.032Z,23.5
2017-08-16T08:39:28.625Z,23.5
2017-08-16T08:40:30.138Z,23.6
2017-08-16T08:41:31.626Z,23.6
2017-08-16T08:42:33.117Z,23.3
2017-08-16T08:43:34.609Z,23.3
2017-08-16T08:44:36.146Z,23.3
2017-08-16T08:45:37.661Z,22.8
2017-08-16T08:46:39.224Z,22.9
2017-08-16T08:47:40.746Z,22.8
2017-08-16T08:48:42.224Z,22.7
2017-08-16T08:49:43.779Z,22.6
2017-08-16T08:50:45.261Z,22.3
2017-08-16T08:51:46.812Z,22.2
2017-08-16T08:52:48.336Z,22.1
2017-08-16T08:53:49.875Z,22.0
2017-08-16T08:54:51.440Z,22.1
2017-08-16T08:55:52.945Z,22.1
2017-08-16T08:56:54.439Z,22.1
2017-08-16T08:57:56.028Z,22.2
2017-08-16T08:58:57.715Z,22.3
2017-08-16T08:59:59.266Z,22.2
2017-08-16T09:01:00.807Z,22.1
2017-08-16T09:02:02.326Z,22.3
2017-08-16T09:03:03.910Z,22.5
2017-08-16T09:04:05.451Z,22.6
2017-08-16T09:05:06.916Z,22.7
2017-08-16T09:06:08.457Z,22.8
2017-08-16T09:07:09.905Z,22.8
2017-08-16T09:08:11.323Z,23.0
2017-08-16T09:09:12.741Z,23.5
2017-08-16T09:10:14.188Z,24.4
2017-08-16T09:11:15.663Z,24.5
2017-08-16T09:12:17.060Z,24.5
2017-08-16T09:13:18.478Z,24.1
2017-08-16T09:14:19.921Z,24.0
2017-08-16T09:15:21.351Z,23.9
2017-08-16T09:16:22.910Z,23.8
2017-08-16T09:17:24.369Z,23.5
2017-08-16T09:18:25.831Z,23.1
2017-08-16T09:19:27.251Z,23.2
2017-08-16T09:20:28.682Z,23.4
2017-08-16T09:21:30.143Z,23.1
2017-08-16T09:22:31.550Z,23.1
2017-08-16T09:23:33.046Z,23.2
2017-08-16T09:24:34.663Z,23.4
2017-08-16T09:25:36.105Z,23.5
2017-08-16T09:26:37.759Z,23.5
2017-08-16T09:27:39.215Z,23.4
2017-08-16T09:28:40.644Z,23.3
2017-08-16T09:29:42.071Z,23.4
2017-08-16T09:30:43.497Z,23.6
2017-08-16T09:31:44.917Z,23.7
2017-08-16T09:32:46.347Z,23.9
2017-08-16T09:33:47.791Z,24.3
2017-08-16T09:34:49.216Z,24.0
2017-08-16T09:35:50.638Z,24.1
2017-08-16T09:36:52.061Z,24.5
2017-08-16T09:37:53.963Z,24.9
2017-08-16T09:38:55.426Z,25.2
2017-08-16T09:39:56.891Z,25.2
2017-08-16T09:40:58.318Z,25.3
2017-08-16T09:41:59.738Z,24.5
2017-08-16T09:43:01.170Z,24.4
2017-08-16T09:44:02.607Z,24.2
2017-08-16T09:45:04.037Z,24.1
2017-08-16T09:46:05.460Z,24.5
2017-08-16T09:47:06.941Z,24.3
2017-08-16T09:48:08.364Z,24.6
2017-08-16T09:49:09.780Z,24.1
2017-08-16T09:50:11.225Z,23.6
2017-08-16T09:51:12.772Z,24.0
2017-08-16T09:52:14.204Z,25.0
2017-08-16T09:53:19.185Z,25.0
2017-08-16T09:54:25.533Z,25.0
2017-08-16T09:55:26.267Z,24.6
2017-08-16T09:56:27.717Z,24.4
2017-08-16T09:57:29.133Z,24.3
2017-08-16T09:58:30.568Z,23.9
2017-08-16T09:59:31.987Z,24.2
2017-08-16T10:00:33.438Z,24.2
2017-08-16T10:01:34.874Z,24.2
2017-08-16T10:02:36.332Z,24.2
2017-08-16T10:03:37.760Z,24.7
2017-08-16T10:04:39.199Z,25.4
2017-08-16T10:05:40.623Z,25.5
2017-08-16T10:06:42.053Z,25.3
2017-08-16T10:07:43.477Z,25.5
2017-08-16T10:08:44.931Z,25.5
2017-08-16T10:09:46.355Z,26.0
2017-08-16T10:10:47.781Z,26.5
2017-08-16T10:11:49.225Z,25.6
2017-08-16T10:13:30.721Z,25.5
2017-08-16T10:14:33.468Z,25.0
2017-08-16T10:15:34.899Z,25.1
2017-08-16T10:16:36.317Z,25.5
2017-08-16T10:17:37.730Z,24.8
2017-08-16T10:18:39.173Z,24.4
2017-08-16T10:19:40.591Z,24.2
2017-08-16T10:20:42.014Z,24.0
2017-08-16T10:21:43.457Z,24.2
2017-08-16T10:22:44.912Z,24.1
2017-08-16T10:23:46.650Z,24.2
2017-08-16T10:24:48.198Z,24.0
2017-08-16T10:25:49.762Z,24.2
2017-08-16T10:26:51.344Z,24.2
2017-08-16T10:27:52.819Z,24.4
2017-08-16T10:28:54.337Z,25.1
2017-08-16T10:29:55.900Z,24.6
2017-08-16T10:30:57.449Z,24.3
2017-08-16T10:31:58.987Z,24.0
2017-08-16T10:33:00.520Z,24.0
2017-08-16T10:34:02.057Z,23.9
2017-08-16T10:35:03.576Z,24.2
2017-08-16T10:36:05.136Z,25.0
2017-08-16T10:37:06.680Z,26.1
2017-08-16T10:38:08.333Z,26.7
2017-08-16T10:39:09.858Z,27.0
2017-08-16T10:40:11.471Z,27.5
2017-08-16T10:41:13.092Z,27.5
2017-08-16T10:42:14.639Z,27.8
2017-08-16T10:43:16.174Z,28.1
2017-08-16T10:44:17.724Z,27.7
2017-08-16T10:45:19.304Z,27.5
2017-08-16T10:46:20.792Z,27.5
2017-08-16T10:47:22.444Z,26.8
2017-08-16T10:48:24.001Z,26.9
2017-08-16T10:49:25.538Z,27.1
2017-08-16T10:50:27.077Z,27.8
2017-08-16T10:51:28.681Z,28.0
2017-08-16T10:52:30.247Z,28.1
2017-08-16T10:53:31.850Z,28.7
2017-08-16T10:54:35.316Z,29.2
2017-08-16T10:55:36.844Z,29.6
2017-08-16T10:56:38.435Z,29.6
2017-08-16T10:57:39.984Z,29.5
2017-08-16T10:58:41.557Z,30.3
2017-08-16T10:59:43.239Z,30.7
2017-08-16T11:00:44.751Z,31.0
2017-08-16T11:01:46.344Z,30.8
2017-08-16T11:02:48.069Z,30.7
2017-08-16T11:03:49.751Z,31.0
2017-08-16T11:04:51.356Z,31.4
2017-08-16T11:05:52.958Z,31.3
2017-08-16T11:06:54.543Z,31.4
2017-08-16T11:07:56.149Z,32.1
2017-08-16T11:08:57.709Z,33.2
2017-08-16T11:09:59.286Z,33.8
2017-08-16T11:11:00.910Z,31.0
2017-08-16T11:12:02.521Z,30.1
2017-08-16T11:13:04.059Z,29.1
2017-08-16T11:14:05.636Z,28.7
2017-08-16T11:15:07.202Z,29.0
2017-08-16T11:16:08.887Z,29.1
2017-08-16T11:17:10.488Z,29.9
2017-08-16T11:18:51.486Z,30.2
2017-08-16T11:19:53.258Z,30.3
2017-08-16T11:20:55.021Z,32.0
2017-08-16T11:21:56.928Z,30.9
2017-08-16T11:22:58.593Z,31.3
2017-08-16T11:24:00.317Z,31.1
2017-08-16T11:25:01.942Z,31.4
2017-08-16T11:26:03.434Z,31.3
2017-08-16T11:27:05.022Z,31.6
2017-08-16T11:28:06.629Z,32.0
2017-08-16T11:29:08.253Z,31.3
2017-08-16T11:30:09.887Z,31.5
2017-08-16T11:31:11.524Z,31.4
2017-08-16T11:32:13.038Z,30.7
2017-08-16T11:33:14.590Z,30.5
2017-08-16T11:34:16.203Z,31.8
2017-08-16T11:35:17.984Z,32.3
2017-08-16T11:36:19.578Z,29.9
2017-08-16T11:37:21.214Z,27.9
2017-08-16T11:38:22.849Z,27.8
2017-08-16T11:39:24.331Z,30.3
2017-08-16T11:40:26.011Z,30.7
2017-08-16T11:41:28.137Z,31.5
2017-08-16T11:42:29.909Z,31.7
2017-08-16T11:43:31.760Z,32.0
2017-08-16T11:44:33.478Z,31.8
2017-08-16T11:45:35.174Z,32.5
2017-08-16T11:46:36.774Z,31.2
2017-08-16T11:47:38.455Z,30.6
2017-08-16T11:48:40.160Z,32.2
2017-08-16T11:49:41.805Z,31.2
2017-08-16T11:50:43.395Z,32.2
2017-08-16T11:51:45.002Z,32.6
2017-08-16T11:52:46.669Z,34.0
2017-08-16T11:53:48.288Z,35.4
2017-08-16T11:54:49.991Z,35.5
2017-08-16T11:55:51.573Z,34.5
2017-08-16T11:56:53.248Z,34.4
2017-08-16T11:57:54.882Z,33.1
2017-08-16T11:58:56.656Z,33.0
2017-08-16T11:59:58.374Z,34.0
2017-08-16T12:00:59.987Z,33.1
2017-08-16T12:02:01.620Z,33.1
2017-08-16T12:03:03.250Z,34.1
2017-08-16T12:04:04.945Z,34.4
2017-08-16T12:05:06.528Z,35.5
2017-08-16T12:06:08.139Z,36.6
2017-08-16T12:07:09.729Z,35.6
2017-08-16T12:08:11.315Z,36.4
2017-08-16T12:09:12.941Z,37.4
2017-08-16T12:10:14.506Z,37.9
2017-08-16T12:11:16.070Z,38.3
2017-08-16T12:12:17.648Z,39.2
2017-08-16T12:13:19.272Z,39.2
2017-08-16T12:14:20.835Z,37.9
2017-08-16T12:15:22.507Z,37.4
2017-08-16T12:16:24.108Z,35.6
2017-08-16T12:17:25.665Z,35.6
2017-08-16T12:18:27.180Z,34.8
2017-08-16T12:19:28.715Z,34.2
2017-08-16T12:20:30.334Z,34.4
2017-08-16T12:21:31.865Z,34.3
2017-08-16T12:22:33.405Z,34.2
2017-08-16T12:23:34.928Z,34.0
2017-08-16T12:24:36.435Z,33.6
2017-08-16T12:25:37.953Z,33.2
2017-08-16T12:26:39.556Z,32.3
2017-08-16T12:27:41.027Z,30.9
2017-08-16T12:28:42.637Z,29.9
2017-08-16T12:29:44.171Z,31.4
2017-08-16T12:30:45.822Z,29.8
2017-08-16T12:31:47.302Z,29.8
2017-08-16T12:32:48.843Z,30.3
2017-08-16T12:33:50.403Z,31.4
2017-08-16T12:34:51.997Z,30.9
2017-08-16T12:35:53.532Z,30.6
2017-08-16T12:36:55.132Z,31.2
2017-08-16T12:37:56.743Z,31.4
2017-08-16T12:38:58.280Z,32.4
2017-08-16T12:39:59.880Z,32.4
2017-08-16T12:41:01.531Z,32.4
2017-08-16T12:42:03.065Z,32.3
2017-08-16T12:43:04.547Z,32.6
2017-08-16T12:44:06.125Z,32.3
2017-08-16T12:45:07.672Z,32.4
2017-08-16T12:46:09.204Z,33.0
2017-08-16T12:47:10.712Z,33.7
2017-08-16T12:48:12.255Z,34.2
2017-08-16T12:49:13.985Z,35.0
2017-08-16T12:50:15.536Z,34.8
2017-08-16T12:51:17.222Z,34.9
2017-08-16T12:52:18.874Z,34.4
2017-08-16T12:53:20.453Z,33.5
2017-08-16T12:54:21.977Z,33.5
2017-08-16T12:55:23.546Z,33.5
2017-08-16T12:56:25.620Z,33.8
2017-08-16T12:57:27.465Z,31.9
2017-08-16T12:58:28.958Z,31.8
2017-08-16T12:59:30.575Z,29.8
2017-08-16T13:00:32.146Z,29.7
2017-08-16T13:01:33.803Z,30.6
2017-08-16T13:02:35.363Z,31.6
2017-08-16T13:03:36.980Z,30.6
2017-08-16T13:04:38.507Z,29.1
2017-08-16T13:05:40.083Z,28.6
2017-08-16T13:06:41.665Z,28.5
2017-08-16T13:07:43.177Z,30.1
2017-08-16T13:08:44.737Z,30.0
2017-08-16T13:09:46.281Z,30.7
2017-08-16T13:10:47.836Z,31.2
2017-08-16T13:11:49.396Z,32.3
2017-08-16T13:12:50.996Z,33.4
2017-08-16T13:13:52.524Z,33.8
2017-08-16T13:14:54.273Z,32.7
2017-08-16T13:15:55.836Z,33.2
2017-08-16T13:16:57.385Z,33.0
2017-08-16T13:17:58.945Z,34.0
2017-08-16T13:19:00.602Z,33.8
2017-08-16T13:20:02.152Z,33.9
2017-08-16T13:21:03.673Z,33.0
2017-08-16T13:22:05.172Z,33.4
2017-08-16T13:23:06.789Z,33.9
2017-08-16T13:24:08.377Z,33.7
2017-08-16T13:25:09.910Z,33.4
2017-08-16T13:26:11.419Z,32.8
2017-08-16T13:27:13.060Z,32.4
2017-08-16T13:28:14.693Z,31.6
2017-08-16T13:29:16.267Z,30.9
2017-08-16T13:30:17.871Z,31.7
2017-08-16T13:31:19.424Z,32.3
2017-08-16T13:32:21.025Z,32.1
2017-08-16T13:33:22.560Z,32.1
2017-08-16T13:34:24.052Z,32.7
2017-08-16T13:35:25.666Z,32.7
2017-08-16T13:36:27.297Z,32.3
2017-08-16T13:37:28.986Z,32.7
2017-08-16T13:38:30.551Z,33.3
2017-08-16T13:39:32.086Z,33.2
2017-08-16T13:40:33.708Z,33.6